AFL205 UCFM-UUEE
Flight info
| Callsign | AFL205 |
|---|---|
| Flight time | N/A |
| Altitude | 34000 |
| Route | BASAN2 BASAN L147 GEDSA/K0817F360 L147 AKB M199 MULTA M162 PODUT T750 OKSUD T787 OTKOL T784 LARNO T291 URIDU L158 DIMGI DIMGI3F |
| Aircraft | A320/M-SDE3FGHIRWY/LB1 |
Departure
| Time | 2026-04-15 13:29 |
|---|---|
| Airport | Manas International Airport (UCFM) |
Arrival
| Time | N/A |
|---|---|
| Airport | Sheremetyevo International Airport (UUEE) |
| Time | Latitude | Longitude | Altitude | Speed | Heading |
|---|---|---|---|---|---|
| 2026-04-15 13:07 | 43.05521 | 74.47025 | 2094 ft | 0 kts | 169° |
| 2026-04-15 13:15 | 43.05529 | 74.47022 | 2093 ft | 2 kts | 169° |
| 2026-04-15 13:15 | 43.05544 | 74.47019 | 2093 ft | 2 kts | 169° |
| 2026-04-15 13:16 | 43.05559 | 74.47015 | 2093 ft | 2 kts | 169° |
| 2026-04-15 13:16 | 43.05573 | 74.47012 | 2093 ft | 2 kts | 163° |
| 2026-04-15 13:16 | 43.05584 | 74.46999 | 2093 ft | 2 kts | 113° |
| 2026-04-15 13:16 | 43.05586 | 74.46980 | 2093 ft | 2 kts | 72° |
| 2026-04-15 13:17 | 43.05582 | 74.46960 | 2093 ft | 2 kts | 81° |
| 2026-04-15 13:17 | 43.05581 | 74.46953 | 2093 ft | 0 kts | 81° |
| 2026-04-15 13:19 | 43.05582 | 74.46959 | 2093 ft | 1 kts | 81° |
| 2026-04-15 13:19 | 43.05584 | 74.46978 | 2093 ft | 2 kts | 81° |
| 2026-04-15 13:20 | 43.05588 | 74.47009 | 2093 ft | 3 kts | 79° |
| 2026-04-15 13:20 | 43.05594 | 74.47057 | 2093 ft | 8 kts | 80° |
| 2026-04-15 13:20 | 43.05606 | 74.47156 | 2093 ft | 9 kts | 73° |
| 2026-04-15 13:20 | 43.05662 | 74.47182 | 2093 ft | 10 kts | 349° |
| 2026-04-15 13:21 | 43.05751 | 74.47164 | 2093 ft | 15 kts | 348° |
| 2026-04-15 13:21 | 43.05841 | 74.47199 | 2093 ft | 14 kts | 70° |
| 2026-04-15 13:21 | 43.05862 | 74.47337 | 2093 ft | 14 kts | 78° |
| 2026-04-15 13:21 | 43.05882 | 74.47474 | 2093 ft | 14 kts | 81° |
| 2026-04-15 13:22 | 43.05897 | 74.47613 | 2093 ft | 14 kts | 81° |
| 2026-04-15 13:22 | 43.05915 | 74.47755 | 2093 ft | 14 kts | 79° |
| 2026-04-15 13:22 | 43.05934 | 74.47894 | 2093 ft | 15 kts | 77° |
| 2026-04-15 13:22 | 43.05952 | 74.48034 | 2093 ft | 15 kts | 80° |
| 2026-04-15 13:23 | 43.05970 | 74.48174 | 2093 ft | 15 kts | 80° |
| 2026-04-15 13:23 | 43.05988 | 74.48315 | 2093 ft | 15 kts | 79° |
| 2026-04-15 13:23 | 43.06010 | 74.48457 | 2093 ft | 15 kts | 64° |
| 2026-04-15 13:23 | 43.06073 | 74.48571 | 2093 ft | 15 kts | 49° |
| 2026-04-15 13:24 | 43.06143 | 74.48677 | 2093 ft | 15 kts | 49° |
| 2026-04-15 13:24 | 43.06211 | 74.48786 | 2093 ft | 15 kts | 49° |
| 2026-04-15 13:24 | 43.06271 | 74.48902 | 2093 ft | 14 kts | 70° |
| 2026-04-15 13:24 | 43.06293 | 74.49043 | 2093 ft | 16 kts | 77° |
| 2026-04-15 13:25 | 43.06317 | 74.49206 | 2093 ft | 18 kts | 78° |
| 2026-04-15 13:25 | 43.06337 | 74.49378 | 2093 ft | 18 kts | 82° |
| 2026-04-15 13:25 | 43.06352 | 74.49549 | 2093 ft | 17 kts | 78° |
| 2026-04-15 13:25 | 43.06382 | 74.49725 | 2093 ft | 21 kts | 76° |
| 2026-04-15 13:26 | 43.06414 | 74.49931 | 2093 ft | 22 kts | 79° |
| 2026-04-15 13:26 | 43.06427 | 74.50105 | 2093 ft | 13 kts | 92° |
| 2026-04-15 13:26 | 43.06392 | 74.50219 | 2093 ft | 9 kts | 112° |
| 2026-04-15 13:26 | 43.06426 | 74.50275 | 2093 ft | 10 kts | 351° |
| 2026-04-15 13:27 | 43.06446 | 74.50228 | 2093 ft | 0 kts | 263° |
| 2026-04-15 13:27 | 43.06446 | 74.50227 | 2093 ft | 0 kts | 263° |
| 2026-04-15 13:27 | 43.06445 | 74.50214 | 2093 ft | 4 kts | 264° |
| 2026-04-15 13:28 | 43.06407 | 74.49914 | 2093 ft | 66 kts | 259° |
| 2026-04-15 13:28 | 43.06292 | 74.49011 | 2094 ft | 125 kts | 260° |
| 2026-04-15 13:28 | 43.06118 | 74.47600 | 2097 ft | 174 kts | 263° |
| 2026-04-15 13:28 | 43.05886 | 74.45981 | 2604 ft | 175 kts | 261° |
| 2026-04-15 13:29 | 43.05837 | 74.44371 | 3247 ft | 170 kts | 289° |
| 2026-04-15 13:29 | 43.06281 | 74.42889 | 3889 ft | 169 kts | 293° |
| 2026-04-15 13:29 | 43.06729 | 74.41350 | 4237 ft | 182 kts | 292° |
| 2026-04-15 13:29 | 43.07206 | 74.39674 | 4543 ft | 198 kts | 292° |
| 2026-04-15 13:30 | 43.07721 | 74.37875 | 4851 ft | 214 kts | 292° |
| 2026-04-15 13:30 | 43.08295 | 74.35894 | 5099 ft | 235 kts | 292° |
| 2026-04-15 13:30 | 43.09031 | 74.33805 | 5456 ft | 253 kts | 308° |
| 2026-04-15 13:30 | 43.10415 | 74.32292 | 6009 ft | 263 kts | 333° |
| 2026-04-15 13:31 | 43.12102 | 74.31370 | 6741 ft | 266 kts | 338° |
| 2026-04-15 13:31 | 43.13851 | 74.30505 | 7376 ft | 272 kts | 338° |
| 2026-04-15 13:31 | 43.15623 | 74.29597 | 8001 ft | 278 kts | 338° |
| 2026-04-15 13:31 | 43.17451 | 74.28622 | 8626 ft | 284 kts | 337° |
| 2026-04-15 13:32 | 43.19286 | 74.27618 | 9236 ft | 290 kts | 337° |
| 2026-04-15 13:32 | 43.21176 | 74.26564 | 9848 ft | 296 kts | 337° |
| 2026-04-15 13:32 | 43.23088 | 74.25492 | 10410 ft | 303 kts | 336° |
| 2026-04-15 13:32 | 43.25097 | 74.24355 | 10742 ft | 320 kts | 336° |
| 2026-04-15 13:33 | 43.27190 | 74.23167 | 11032 ft | 336 kts | 336° |
| 2026-04-15 13:33 | 43.29414 | 74.21904 | 11415 ft | 349 kts | 336° |
| 2026-04-15 13:33 | 43.31629 | 74.20559 | 11984 ft | 353 kts | 330° |
| 2026-04-15 13:33 | 43.33744 | 74.18793 | 12637 ft | 355 kts | 321° |
| 2026-04-15 13:34 | 43.35662 | 74.16691 | 13243 ft | 357 kts | 316° |
| 2026-04-15 13:34 | 43.37517 | 74.14477 | 13846 ft | 360 kts | 315° |
| 2026-04-15 13:34 | 43.39402 | 74.12197 | 14523 ft | 361 kts | 315° |
| 2026-04-15 13:34 | 43.41279 | 74.09927 | 15254 ft | 360 kts | 315° |
| 2026-04-15 13:35 | 43.43145 | 74.07680 | 15966 ft | 359 kts | 315° |
| 2026-04-15 13:35 | 43.45011 | 74.05441 | 16634 ft | 359 kts | 314° |
| 2026-04-15 13:35 | 43.46880 | 74.03198 | 17314 ft | 358 kts | 315° |
| 2026-04-15 13:35 | 43.48735 | 74.00974 | 17941 ft | 358 kts | 314° |
| 2026-04-15 13:36 | 43.50576 | 73.98766 | 18512 ft | 359 kts | 314° |
| 2026-04-15 13:36 | 43.52479 | 73.96479 | 19041 ft | 362 kts | 314° |
| 2026-04-15 13:36 | 43.54367 | 73.94209 | 19553 ft | 365 kts | 314° |
| 2026-04-15 13:36 | 43.56298 | 73.91880 | 20049 ft | 368 kts | 314° |
| 2026-04-15 13:37 | 43.58207 | 73.89549 | 20535 ft | 370 kts | 313° |
| 2026-04-15 13:37 | 43.60080 | 73.87141 | 21004 ft | 373 kts | 313° |
| 2026-04-15 13:37 | 43.61986 | 73.84665 | 21455 ft | 376 kts | 312° |
| 2026-04-15 13:37 | 43.63874 | 73.82218 | 21915 ft | 379 kts | 312° |
| 2026-04-15 13:38 | 43.65760 | 73.79775 | 22347 ft | 382 kts | 312° |
| 2026-04-15 13:38 | 43.67696 | 73.77237 | 22779 ft | 384 kts | 310° |
| 2026-04-15 13:38 | 43.69525 | 73.74568 | 23187 ft | 386 kts | 307° |
| 2026-04-15 13:38 | 43.71240 | 73.71722 | 23598 ft | 387 kts | 303° |
| 2026-04-15 13:39 | 43.72847 | 73.68778 | 24031 ft | 388 kts | 302° |
| 2026-04-15 13:39 | 43.74387 | 73.65906 | 24431 ft | 391 kts | 302° |
| 2026-04-15 13:39 | 43.76061 | 73.62779 | 24853 ft | 393 kts | 302° |
| 2026-04-15 13:39 | 43.77677 | 73.59755 | 25225 ft | 396 kts | 302° |
| 2026-04-15 13:40 | 43.79315 | 73.56693 | 25577 ft | 399 kts | 302° |
| 2026-04-15 13:40 | 43.80965 | 73.53606 | 25924 ft | 402 kts | 302° |
| 2026-04-15 13:40 | 43.82639 | 73.50468 | 26263 ft | 405 kts | 302° |
| 2026-04-15 13:40 | 43.84283 | 73.47388 | 26604 ft | 407 kts | 302° |
| 2026-04-15 13:41 | 43.85968 | 73.44227 | 26933 ft | 409 kts | 302° |
| 2026-04-15 13:41 | 43.87651 | 73.41068 | 27248 ft | 412 kts | 302° |
| 2026-04-15 13:41 | 43.89347 | 73.37881 | 27560 ft | 414 kts | 302° |
| 2026-04-15 13:41 | 43.91053 | 73.34671 | 27856 ft | 417 kts | 302° |
| 2026-04-15 13:42 | 43.92760 | 73.31445 | 28163 ft | 419 kts | 301° |
| 2026-04-15 13:42 | 43.94481 | 73.28191 | 28462 ft | 421 kts | 301° |
| 2026-04-15 13:42 | 43.96184 | 73.24966 | 28735 ft | 424 kts | 301° |
| 2026-04-15 13:42 | 43.97939 | 73.21649 | 29100 ft | 424 kts | 301° |
| 2026-04-15 13:43 | 43.99687 | 73.18343 | 29524 ft | 423 kts | 301° |
| 2026-04-15 13:43 | 44.01408 | 73.15086 | 29956 ft | 421 kts | 301° |
| 2026-04-15 13:43 | 44.03132 | 73.11817 | 30326 ft | 421 kts | 301° |
| 2026-04-15 13:43 | 44.04808 | 73.08638 | 30675 ft | 421 kts | 301° |
| 2026-04-15 13:44 | 44.06562 | 73.05314 | 31028 ft | 420 kts | 301° |
| 2026-04-15 13:44 | 44.08272 | 73.02062 | 31418 ft | 419 kts | 301° |
| 2026-04-15 13:44 | 44.09974 | 72.98821 | 31804 ft | 417 kts | 301° |
| 2026-04-15 13:44 | 44.11677 | 72.95588 | 32155 ft | 415 kts | 301° |
| 2026-04-15 13:45 | 44.13362 | 72.92385 | 32470 ft | 414 kts | 301° |
| 2026-04-15 13:45 | 44.15054 | 72.89160 | 32716 ft | 415 kts | 300° |
| 2026-04-15 13:45 | 44.16736 | 72.85941 | 32915 ft | 416 kts | 301° |
| 2026-04-15 13:47 | 44.28606 | 72.63080 | 34004 ft | 420 kts | 300° |
| 2026-04-15 13:47 | 44.31994 | 72.56526 | 34022 ft | 420 kts | 301° |
| 2026-04-15 13:48 | 44.35390 | 72.49951 | 34014 ft | 420 kts | 300° |
| 2026-04-15 13:48 | 44.38794 | 72.43344 | 34013 ft | 419 kts | 300° |
| 2026-04-15 13:49 | 44.42167 | 72.36782 | 34014 ft | 419 kts | 300° |
| 2026-04-15 13:49 | 44.45596 | 72.30078 | 34013 ft | 426 kts | 299° |
| 2026-04-15 13:50 | 44.49032 | 72.23333 | 34007 ft | 434 kts | 300° |
| 2026-04-15 13:50 | 44.52549 | 72.16434 | 34014 ft | 435 kts | 300° |
| 2026-04-15 13:51 | 44.56019 | 72.09621 | 34015 ft | 435 kts | 300° |
| 2026-04-15 13:51 | 44.59535 | 72.02702 | 34024 ft | 435 kts | 300° |
| 2026-04-15 13:52 | 44.63040 | 71.95787 | 34016 ft | 436 kts | 299° |
| 2026-04-15 13:52 | 44.66537 | 71.88869 | 34010 ft | 436 kts | 300° |
| 2026-04-15 13:53 | 44.70010 | 71.81983 | 34021 ft | 436 kts | 299° |
| 2026-04-15 13:53 | 44.73499 | 71.75045 | 34022 ft | 437 kts | 299° |
| 2026-04-15 13:54 | 44.76989 | 71.68095 | 34019 ft | 437 kts | 299° |
| 2026-04-15 13:54 | 44.80515 | 71.61055 | 34019 ft | 436 kts | 299° |
| 2026-04-15 13:55 | 44.84000 | 71.54102 | 34015 ft | 437 kts | 299° |
| 2026-04-15 13:55 | 44.87462 | 71.47127 | 34014 ft | 437 kts | 298° |
| 2026-04-15 13:56 | 44.90939 | 71.40108 | 34004 ft | 438 kts | 299° |
| 2026-04-15 13:56 | 44.94416 | 71.33097 | 34006 ft | 438 kts | 298° |
| 2026-04-15 13:57 | 44.97887 | 71.26058 | 34004 ft | 438 kts | 298° |
| 2026-04-15 13:57 | 45.01346 | 71.19038 | 34000 ft | 438 kts | 298° |
| 2026-04-15 13:58 | 45.04774 | 71.12072 | 33997 ft | 439 kts | 298° |
| 2026-04-15 13:58 | 45.08284 | 71.04931 | 33994 ft | 439 kts | 298° |
| 2026-04-15 13:59 | 45.11755 | 70.97876 | 33993 ft | 439 kts | 298° |
| 2026-04-15 13:59 | 45.15230 | 70.90831 | 33995 ft | 440 kts | 298° |
| 2026-04-15 14:00 | 45.18692 | 70.83750 | 33995 ft | 440 kts | 298° |
| 2026-04-15 14:00 | 45.22177 | 70.76592 | 33993 ft | 440 kts | 298° |
| 2026-04-15 14:01 | 45.27359 | 70.65908 | 33991 ft | 441 kts | 298° |
| 2026-04-15 14:02 | 45.30798 | 70.58813 | 33988 ft | 441 kts | 298° |
| 2026-04-15 14:02 | 45.34271 | 70.51635 | 33988 ft | 441 kts | 298° |
| 2026-04-15 14:03 | 45.37744 | 70.44433 | 33990 ft | 442 kts | 298° |
| 2026-04-15 14:03 | 45.41182 | 70.37286 | 33991 ft | 442 kts | 298° |
| 2026-04-15 14:04 | 45.44626 | 70.30096 | 33990 ft | 442 kts | 297° |
| 2026-04-15 14:04 | 45.48073 | 70.22877 | 33987 ft | 444 kts | 297° |
| 2026-04-15 14:05 | 45.51548 | 70.15592 | 33989 ft | 444 kts | 297° |
| 2026-04-15 14:05 | 45.54987 | 70.08370 | 33986 ft | 444 kts | 297° |
| 2026-04-15 14:06 | 45.58350 | 70.01295 | 33988 ft | 444 kts | 297° |
| 2026-04-15 14:06 | 45.61898 | 69.93802 | 33988 ft | 446 kts | 297° |
| 2026-04-15 14:07 | 45.65338 | 69.86526 | 33987 ft | 445 kts | 297° |
| 2026-04-15 14:07 | 45.68802 | 69.79182 | 33988 ft | 445 kts | 297° |
| 2026-04-15 14:08 | 45.72228 | 69.71896 | 33984 ft | 445 kts | 297° |
| 2026-04-15 14:08 | 45.75642 | 69.64616 | 33985 ft | 445 kts | 297° |
| 2026-04-15 14:09 | 45.79089 | 69.57249 | 33984 ft | 447 kts | 297° |
| 2026-04-15 14:09 | 45.82531 | 69.49872 | 33985 ft | 448 kts | 297° |
| 2026-04-15 14:10 | 45.85983 | 69.42458 | 33981 ft | 448 kts | 297° |
| 2026-04-15 14:10 | 45.89402 | 69.35104 | 33980 ft | 437 kts | 297° |
| 2026-04-15 14:11 | 45.92723 | 69.27925 | 33992 ft | 430 kts | 296° |
| 2026-04-15 14:11 | 45.95947 | 69.20929 | 33999 ft | 432 kts | 296° |
| 2026-04-15 14:12 | 45.99319 | 69.13615 | 34000 ft | 431 kts | 296° |
| 2026-04-15 14:12 | 46.02614 | 69.06447 | 34000 ft | 431 kts | 296° |
| 2026-04-15 14:13 | 46.05886 | 68.99271 | 33999 ft | 431 kts | 296° |
| 2026-04-15 14:13 | 46.09123 | 68.92129 | 33990 ft | 433 kts | 296° |
| 2026-04-15 14:14 | 46.12438 | 68.84849 | 33986 ft | 433 kts | 297° |
| 2026-04-15 14:14 | 46.15725 | 68.77638 | 33988 ft | 433 kts | 296° |
| 2026-04-15 14:15 | 46.19005 | 68.70393 | 33976 ft | 433 kts | 297° |
| 2026-04-15 14:15 | 46.22259 | 68.63175 | 33971 ft | 434 kts | 297° |
| 2026-04-15 14:16 | 46.25522 | 68.55911 | 33974 ft | 434 kts | 297° |
| 2026-04-15 14:16 | 46.28790 | 68.48621 | 33975 ft | 434 kts | 297° |
| 2026-04-15 14:17 | 46.32059 | 68.41298 | 33973 ft | 434 kts | 297° |
| 2026-04-15 14:17 | 46.35320 | 68.33979 | 33978 ft | 435 kts | 296° |
| 2026-04-15 14:18 | 46.38580 | 68.26624 | 33977 ft | 435 kts | 296° |
| 2026-04-15 14:18 | 46.41821 | 68.19296 | 33978 ft | 435 kts | 296° |
| 2026-04-15 14:19 | 46.45067 | 68.11955 | 33978 ft | 437 kts | 296° |
| 2026-04-15 14:19 | 46.48329 | 68.04559 | 33979 ft | 437 kts | 297° |
| 2026-04-15 14:20 | 46.51609 | 67.97106 | 33974 ft | 437 kts | 297° |
| 2026-04-15 14:20 | 46.54843 | 67.89726 | 33974 ft | 437 kts | 296° |
| 2026-04-15 14:21 | 46.58037 | 67.82258 | 33969 ft | 436 kts | 296° |
| 2026-04-15 14:21 | 46.61221 | 67.74783 | 33969 ft | 437 kts | 296° |
| 2026-04-15 14:22 | 46.64417 | 67.67281 | 33965 ft | 437 kts | 297° |
| 2026-04-15 14:22 | 46.67665 | 67.59830 | 33966 ft | 438 kts | 297° |
| 2026-04-15 14:23 | 46.70937 | 67.52348 | 33959 ft | 439 kts | 297° |
| 2026-04-15 14:23 | 46.74191 | 67.44877 | 33958 ft | 440 kts | 297° |
| 2026-04-15 14:24 | 46.77443 | 67.37384 | 33954 ft | 440 kts | 297° |
| 2026-04-15 14:24 | 46.80670 | 67.29919 | 33955 ft | 440 kts | 296° |
| 2026-04-15 14:25 | 46.83937 | 67.22340 | 33962 ft | 441 kts | 296° |
| 2026-04-15 14:25 | 46.87180 | 67.14805 | 33962 ft | 442 kts | 297° |
| 2026-04-15 14:26 | 46.90395 | 67.07207 | 33968 ft | 441 kts | 296° |
| 2026-04-15 14:26 | 46.93534 | 66.99612 | 33974 ft | 441 kts | 296° |
| 2026-04-15 14:27 | 46.96715 | 66.91965 | 33974 ft | 442 kts | 297° |
| 2026-04-15 14:27 | 46.99936 | 66.84360 | 33972 ft | 442 kts | 297° |
| 2026-04-15 14:28 | 47.03177 | 66.76700 | 33970 ft | 443 kts | 297° |
| 2026-04-15 14:28 | 47.06398 | 66.69059 | 33968 ft | 444 kts | 297° |
| 2026-04-15 14:29 | 47.09615 | 66.61401 | 33964 ft | 444 kts | 297° |
| 2026-04-15 14:29 | 47.12872 | 66.53682 | 33956 ft | 445 kts | 297° |
| 2026-04-15 14:30 | 47.16109 | 66.45993 | 33949 ft | 445 kts | 297° |
| 2026-04-15 14:30 | 47.19321 | 66.38306 | 33961 ft | 445 kts | 297° |
| 2026-04-15 14:31 | 47.22538 | 66.30558 | 33967 ft | 445 kts | 296° |
| 2026-04-15 14:31 | 47.25741 | 66.22806 | 33961 ft | 445 kts | 296° |
| 2026-04-15 14:32 | 47.28933 | 66.15073 | 33964 ft | 446 kts | 297° |
| 2026-04-15 14:32 | 47.32145 | 66.07276 | 33963 ft | 446 kts | 297° |
| 2026-04-15 14:33 | 47.35355 | 65.99465 | 33960 ft | 447 kts | 297° |
| 2026-04-15 14:33 | 47.38556 | 65.91657 | 33957 ft | 448 kts | 297° |
| 2026-04-15 14:34 | 47.41762 | 65.83807 | 33962 ft | 447 kts | 297° |
| 2026-04-15 14:34 | 47.44933 | 65.75967 | 33964 ft | 448 kts | 297° |
| 2026-04-15 14:35 | 47.48109 | 65.68082 | 33959 ft | 448 kts | 297° |
| 2026-04-15 14:35 | 47.51273 | 65.60210 | 33961 ft | 449 kts | 297° |
| 2026-04-15 14:36 | 47.54458 | 65.52273 | 33952 ft | 449 kts | 297° |
| 2026-04-15 14:36 | 47.57628 | 65.44350 | 33961 ft | 447 kts | 297° |
| 2026-04-15 14:37 | 47.60778 | 65.36446 | 33955 ft | 447 kts | 297° |
| 2026-04-15 14:37 | 47.63902 | 65.28573 | 33939 ft | 444 kts | 296° |
| 2026-04-15 14:38 | 47.67020 | 65.20691 | 33946 ft | 444 kts | 296° |
| 2026-04-15 14:38 | 47.70129 | 65.12822 | 33939 ft | 444 kts | 297° |
| 2026-04-15 14:39 | 47.73220 | 65.04992 | 33948 ft | 444 kts | 296° |
| 2026-04-15 14:39 | 47.76340 | 64.97058 | 33936 ft | 444 kts | 297° |
| 2026-04-15 14:40 | 47.79414 | 64.89213 | 33940 ft | 439 kts | 297° |
| 2026-04-15 14:40 | 47.82476 | 64.81383 | 33934 ft | 438 kts | 297° |
| 2026-04-15 14:41 | 47.85542 | 64.73525 | 33932 ft | 440 kts | 297° |
| 2026-04-15 14:41 | 47.88600 | 64.65675 | 33940 ft | 440 kts | 297° |
| 2026-04-15 14:42 | 47.91659 | 64.57806 | 33925 ft | 441 kts | 297° |
| 2026-04-15 14:42 | 47.94711 | 64.49928 | 33942 ft | 442 kts | 297° |
| 2026-04-15 14:43 | 47.97781 | 64.41972 | 33925 ft | 442 kts | 297° |
| 2026-04-15 14:43 | 48.00827 | 64.34067 | 33920 ft | 443 kts | 296° |
| 2026-04-15 14:44 | 48.03887 | 64.26072 | 33915 ft | 443 kts | 296° |
| 2026-04-15 14:44 | 48.06943 | 64.18076 | 33914 ft | 444 kts | 297° |
| 2026-04-15 14:45 | 48.09997 | 64.10072 | 33911 ft | 444 kts | 297° |
| 2026-04-15 14:45 | 48.13066 | 64.02073 | 33910 ft | 445 kts | 297° |
| 2026-04-15 14:46 | 48.16118 | 63.94080 | 33907 ft | 445 kts | 297° |
| 2026-04-15 14:46 | 48.19165 | 63.86047 | 33906 ft | 446 kts | 297° |
| 2026-04-15 14:47 | 48.22205 | 63.77990 | 33902 ft | 446 kts | 297° |
| 2026-04-15 14:47 | 48.25244 | 63.69907 | 33902 ft | 447 kts | 297° |
| 2026-04-15 14:48 | 48.28283 | 63.61801 | 33902 ft | 447 kts | 297° |
| 2026-04-15 14:48 | 48.31314 | 63.53689 | 33903 ft | 448 kts | 297° |
| 2026-04-15 14:49 | 48.34331 | 63.45590 | 33899 ft | 447 kts | 297° |
| 2026-04-15 14:49 | 48.37349 | 63.37464 | 33895 ft | 448 kts | 297° |
| 2026-04-15 14:50 | 48.40364 | 63.29307 | 33895 ft | 448 kts | 297° |
| 2026-04-15 14:50 | 48.43378 | 63.21119 | 33891 ft | 449 kts | 297° |
| 2026-04-15 14:51 | 48.46372 | 63.12978 | 33894 ft | 449 kts | 297° |
| 2026-04-15 14:51 | 48.49398 | 63.04730 | 33896 ft | 449 kts | 297° |
| 2026-04-15 14:52 | 48.52405 | 62.96506 | 33898 ft | 449 kts | 297° |
| 2026-04-15 14:52 | 48.55384 | 62.88341 | 33899 ft | 450 kts | 297° |
| 2026-04-15 14:53 | 48.58379 | 62.80101 | 33890 ft | 450 kts | 297° |
| 2026-04-15 14:53 | 48.61380 | 62.71824 | 33897 ft | 450 kts | 297° |
| 2026-04-15 14:54 | 48.64301 | 62.63500 | 33900 ft | 449 kts | 295° |
| 2026-04-15 14:54 | 48.67068 | 62.55041 | 33896 ft | 450 kts | 295° |
| 2026-04-15 14:55 | 48.69827 | 62.46602 | 33889 ft | 451 kts | 295° |
| 2026-04-15 14:55 | 48.72588 | 62.38177 | 33886 ft | 452 kts | 295° |
| 2026-04-15 14:56 | 48.75361 | 62.29698 | 33898 ft | 451 kts | 295° |
| 2026-04-15 14:56 | 48.78131 | 62.21182 | 33891 ft | 452 kts | 295° |
| 2026-04-15 14:57 | 48.80891 | 62.12682 | 33887 ft | 453 kts | 295° |
| 2026-04-15 14:57 | 48.83658 | 62.04142 | 33884 ft | 452 kts | 295° |
| 2026-04-15 14:58 | 48.86422 | 61.95589 | 33887 ft | 453 kts | 295° |
| 2026-04-15 14:58 | 48.89185 | 61.87008 | 33879 ft | 452 kts | 295° |
| 2026-04-15 14:59 | 48.91938 | 61.78423 | 33889 ft | 456 kts | 295° |
| 2026-04-15 14:59 | 48.94730 | 61.69690 | 33879 ft | 468 kts | 295° |
| 2026-04-15 15:00 | 48.97570 | 61.60777 | 33884 ft | 478 kts | 295° |
| 2026-04-15 15:00 | 49.00482 | 61.51608 | 33873 ft | 486 kts | 295° |
| 2026-04-15 15:01 | 49.03405 | 61.42367 | 33871 ft | 486 kts | 295° |
| 2026-04-15 15:01 | 49.06305 | 61.33166 | 33873 ft | 485 kts | 294° |
| 2026-04-15 15:02 | 49.09197 | 61.23927 | 33867 ft | 485 kts | 295° |
| 2026-04-15 15:02 | 49.12106 | 61.14673 | 33871 ft | 485 kts | 295° |
| 2026-04-15 15:03 | 49.14998 | 61.05472 | 33876 ft | 485 kts | 295° |
| 2026-04-15 15:03 | 49.17900 | 60.96157 | 33882 ft | 485 kts | 295° |
| 2026-04-15 15:04 | 49.20761 | 60.86911 | 33892 ft | 484 kts | 294° |
| 2026-04-15 15:04 | 49.23623 | 60.77617 | 33892 ft | 483 kts | 295° |
| 2026-04-15 15:05 | 49.26463 | 60.68362 | 33894 ft | 483 kts | 295° |
| 2026-04-15 15:05 | 49.29285 | 60.59140 | 33897 ft | 482 kts | 295° |
| 2026-04-15 15:06 | 49.33535 | 60.45188 | 33901 ft | 481 kts | 295° |
| 2026-04-15 15:06 | 49.36348 | 60.35908 | 33892 ft | 481 kts | 295° |
| 2026-04-15 15:07 | 49.39146 | 60.26620 | 33898 ft | 481 kts | 295° |
| 2026-04-15 15:07 | 49.41919 | 60.17382 | 33901 ft | 479 kts | 295° |
| 2026-04-15 15:08 | 49.44687 | 60.08147 | 33891 ft | 479 kts | 295° |
| 2026-04-15 15:08 | 49.47437 | 59.98946 | 33883 ft | 477 kts | 295° |
| 2026-04-15 15:09 | 49.50189 | 59.89707 | 33882 ft | 478 kts | 295° |
| 2026-04-15 15:09 | 49.52940 | 59.80423 | 33885 ft | 478 kts | 295° |
| 2026-04-15 15:10 | 49.55650 | 59.71228 | 33893 ft | 477 kts | 295° |
| 2026-04-15 15:10 | 49.58319 | 59.62134 | 33888 ft | 476 kts | 295° |
| 2026-04-15 15:11 | 49.61051 | 59.52797 | 33891 ft | 474 kts | 295° |
| 2026-04-15 15:11 | 49.63739 | 59.43584 | 33893 ft | 474 kts | 295° |
| 2026-04-15 15:12 | 49.66417 | 59.34373 | 33897 ft | 473 kts | 294° |
| 2026-04-15 15:12 | 49.69048 | 59.25262 | 33897 ft | 471 kts | 294° |
| 2026-04-15 15:13 | 49.71704 | 59.16024 | 33890 ft | 472 kts | 295° |
| 2026-04-15 15:13 | 49.74355 | 59.06771 | 33897 ft | 471 kts | 294° |
| 2026-04-15 15:14 | 49.76992 | 58.97545 | 33901 ft | 470 kts | 295° |
| 2026-04-15 15:14 | 49.79594 | 58.88411 | 33891 ft | 469 kts | 295° |
| 2026-04-15 15:15 | 49.82184 | 58.79290 | 33899 ft | 468 kts | 295° |
| 2026-04-15 15:15 | 49.84799 | 58.70047 | 33901 ft | 468 kts | 295° |
| 2026-04-15 15:16 | 49.87384 | 58.60873 | 33903 ft | 467 kts | 295° |
| 2026-04-15 15:16 | 49.89957 | 58.51709 | 33905 ft | 466 kts | 295° |
| 2026-04-15 15:17 | 49.92529 | 58.42518 | 33908 ft | 465 kts | 295° |
| 2026-04-15 15:17 | 49.95068 | 58.33416 | 33908 ft | 463 kts | 294° |
| 2026-04-15 15:18 | 49.97613 | 58.24227 | 33908 ft | 463 kts | 294° |
| 2026-04-15 15:18 | 50.00115 | 58.15158 | 33913 ft | 462 kts | 294° |
| 2026-04-15 15:19 | 50.02652 | 58.05901 | 33912 ft | 463 kts | 294° |
| 2026-04-15 15:19 | 50.05151 | 57.96764 | 33929 ft | 462 kts | 294° |
| 2026-04-15 15:20 | 50.07634 | 57.87666 | 33933 ft | 462 kts | 295° |
| 2026-04-15 15:20 | 50.10124 | 57.78519 | 33938 ft | 461 kts | 295° |
| 2026-04-15 15:21 | 50.12629 | 57.69375 | 33947 ft | 461 kts | 295° |
| 2026-04-15 15:21 | 50.15130 | 57.60171 | 33940 ft | 463 kts | 295° |
| 2026-04-15 15:22 | 50.17615 | 57.50942 | 33956 ft | 464 kts | 295° |
| 2026-04-15 15:22 | 50.20090 | 57.41695 | 33965 ft | 463 kts | 295° |
| 2026-04-15 15:23 | 50.22566 | 57.32496 | 33963 ft | 462 kts | 297° |
| 2026-04-15 15:23 | 50.26036 | 57.24234 | 33969 ft | 455 kts | 314° |
| 2026-04-15 15:24 | 50.30733 | 57.17981 | 33976 ft | 448 kts | 331° |
| 2026-04-15 15:24 | 50.36311 | 57.14010 | 33972 ft | 441 kts | 346° |
| 2026-04-15 15:25 | 50.42196 | 57.11560 | 33980 ft | 440 kts | 348° |
| 2026-04-15 15:25 | 50.48123 | 57.09188 | 33984 ft | 440 kts | 348° |
| 2026-04-15 15:26 | 50.54005 | 57.06803 | 33989 ft | 441 kts | 347° |
| 2026-04-15 15:26 | 50.59891 | 57.04391 | 33993 ft | 440 kts | 347° |
| 2026-04-15 15:27 | 50.65747 | 57.01985 | 33999 ft | 439 kts | 347° |
| 2026-04-15 15:27 | 50.71666 | 56.99544 | 34008 ft | 439 kts | 347° |
| 2026-04-15 15:28 | 50.77568 | 56.97105 | 34014 ft | 441 kts | 347° |
| 2026-04-15 15:28 | 50.83441 | 56.94670 | 34015 ft | 441 kts | 347° |
| 2026-04-15 15:29 | 50.89378 | 56.92207 | 34022 ft | 441 kts | 347° |
| 2026-04-15 15:29 | 50.95272 | 56.89753 | 34034 ft | 442 kts | 347° |
| 2026-04-15 15:30 | 51.01180 | 56.87008 | 34039 ft | 442 kts | 340° |
| 2026-04-15 15:30 | 51.06673 | 56.82704 | 34040 ft | 444 kts | 329° |
| 2026-04-15 15:31 | 51.11570 | 56.76783 | 34041 ft | 447 kts | 319° |
| 2026-04-15 15:31 | 51.15765 | 56.69563 | 34049 ft | 448 kts | 312° |
| 2026-04-15 15:32 | 51.19769 | 56.61950 | 34049 ft | 449 kts | 312° |
| 2026-04-15 15:32 | 51.23745 | 56.54356 | 34055 ft | 448 kts | 312° |
| 2026-04-15 15:33 | 51.27702 | 56.46796 | 34060 ft | 447 kts | 312° |
| 2026-04-15 15:33 | 51.31664 | 56.39211 | 34061 ft | 447 kts | 312° |
| 2026-04-15 15:34 | 51.35625 | 56.31601 | 34062 ft | 447 kts | 311° |
| 2026-04-15 15:34 | 51.39563 | 56.23991 | 34066 ft | 446 kts | 311° |
| 2026-04-15 15:35 | 51.43527 | 56.16332 | 34076 ft | 446 kts | 311° |
| 2026-04-15 15:35 | 51.47452 | 56.08732 | 34074 ft | 446 kts | 311° |
| 2026-04-15 15:36 | 51.51384 | 56.01096 | 34076 ft | 446 kts | 311° |
| 2026-04-15 15:36 | 51.55297 | 55.93468 | 34077 ft | 445 kts | 311° |
| 2026-04-15 15:37 | 51.59198 | 55.85847 | 34076 ft | 445 kts | 311° |
| 2026-04-15 15:37 | 51.63083 | 55.78235 | 34084 ft | 445 kts | 311° |
| 2026-04-15 15:38 | 51.67004 | 55.70531 | 34080 ft | 444 kts | 311° |
| 2026-04-15 15:38 | 51.70880 | 55.62894 | 34084 ft | 444 kts | 311° |
| 2026-04-15 15:39 | 51.74777 | 55.55196 | 34091 ft | 443 kts | 311° |
| 2026-04-15 15:39 | 51.78632 | 55.47551 | 34093 ft | 443 kts | 311° |
| 2026-04-15 15:40 | 51.82414 | 55.39801 | 34087 ft | 443 kts | 309° |
| 2026-04-15 15:40 | 51.86141 | 55.31843 | 34097 ft | 443 kts | 308° |
| 2026-04-15 15:41 | 51.89858 | 55.23886 | 34096 ft | 443 kts | 308° |
| 2026-04-15 15:41 | 51.93564 | 55.15974 | 34103 ft | 442 kts | 309° |
| 2026-04-15 15:42 | 51.97253 | 55.08093 | 34104 ft | 442 kts | 309° |
| 2026-04-15 15:42 | 52.00947 | 55.00188 | 34107 ft | 442 kts | 309° |
| 2026-04-15 15:43 | 52.04633 | 54.92276 | 34107 ft | 442 kts | 309° |
| 2026-04-15 15:43 | 52.08313 | 54.84336 | 34113 ft | 442 kts | 309° |
| 2026-04-15 15:44 | 52.11966 | 54.76452 | 34108 ft | 442 kts | 309° |
| 2026-04-15 15:44 | 52.15686 | 54.68438 | 34107 ft | 442 kts | 309° |
| 2026-04-15 15:45 | 52.19371 | 54.60450 | 34108 ft | 442 kts | 309° |
| 2026-04-15 15:45 | 52.23051 | 54.52427 | 34105 ft | 443 kts | 309° |
| 2026-04-15 15:46 | 52.26697 | 54.44447 | 34109 ft | 443 kts | 309° |
| 2026-04-15 15:46 | 52.30312 | 54.36382 | 34104 ft | 444 kts | 307° |
| 2026-04-15 15:47 | 52.33495 | 54.27752 | 34108 ft | 445 kts | 300° |
| 2026-04-15 15:47 | 52.36303 | 54.18791 | 34102 ft | 446 kts | 299° |
| 2026-04-15 15:48 | 52.39085 | 54.09797 | 34105 ft | 447 kts | 299° |
| 2026-04-15 15:48 | 52.41865 | 54.00790 | 34103 ft | 447 kts | 299° |
| 2026-04-15 15:49 | 52.44641 | 53.91779 | 34104 ft | 447 kts | 299° |
| 2026-04-15 15:49 | 52.47424 | 53.82719 | 34106 ft | 446 kts | 299° |
| 2026-04-15 15:50 | 52.50177 | 53.73721 | 34109 ft | 446 kts | 299° |
| 2026-04-15 15:50 | 52.52954 | 53.64614 | 34110 ft | 446 kts | 299° |
| 2026-04-15 15:51 | 52.55716 | 53.55524 | 34107 ft | 446 kts | 299° |
| 2026-04-15 15:51 | 52.58458 | 53.46461 | 34108 ft | 445 kts | 299° |
| 2026-04-15 15:52 | 52.61186 | 53.37414 | 34110 ft | 445 kts | 299° |
| 2026-04-15 15:52 | 52.63921 | 53.28296 | 34111 ft | 445 kts | 298° |
| 2026-04-15 15:53 | 52.66637 | 53.19196 | 34116 ft | 445 kts | 298° |
| 2026-04-15 15:53 | 52.69333 | 53.10140 | 34108 ft | 445 kts | 298° |
| 2026-04-15 15:54 | 52.72061 | 53.00957 | 34114 ft | 445 kts | 298° |
| 2026-04-15 15:54 | 52.74748 | 52.91871 | 34114 ft | 445 kts | 298° |
| 2026-04-15 15:55 | 52.77430 | 52.82749 | 34117 ft | 444 kts | 298° |
| 2026-04-15 15:55 | 52.80100 | 52.73630 | 34115 ft | 444 kts | 298° |
| 2026-04-15 15:56 | 52.82774 | 52.64473 | 34112 ft | 444 kts | 298° |
| 2026-04-15 15:56 | 52.85437 | 52.55324 | 34113 ft | 444 kts | 298° |
| 2026-04-15 15:57 | 52.88108 | 52.46110 | 34114 ft | 444 kts | 298° |
| 2026-04-15 15:57 | 52.90744 | 52.36991 | 34120 ft | 444 kts | 298° |
| 2026-04-15 15:58 | 52.93380 | 52.27812 | 34110 ft | 444 kts | 297° |
| 2026-04-15 15:58 | 52.96015 | 52.18605 | 34114 ft | 444 kts | 297° |
| 2026-04-15 15:59 | 52.98653 | 52.09372 | 34116 ft | 444 kts | 297° |
| 2026-04-15 15:59 | 53.01286 | 52.00113 | 34114 ft | 445 kts | 297° |
| 2026-04-15 16:00 | 53.03901 | 51.90837 | 34119 ft | 445 kts | 297° |
| 2026-04-15 16:00 | 53.06509 | 51.81564 | 34116 ft | 444 kts | 297° |
| 2026-04-15 16:01 | 53.09108 | 51.72303 | 34118 ft | 444 kts | 297° |
| 2026-04-15 16:01 | 53.11689 | 51.63122 | 34125 ft | 444 kts | 297° |
| 2026-04-15 16:02 | 53.14298 | 51.53833 | 34127 ft | 444 kts | 297° |
| 2026-04-15 16:02 | 53.16877 | 51.44544 | 34126 ft | 444 kts | 297° |
| 2026-04-15 16:03 | 53.19457 | 51.35200 | 34125 ft | 445 kts | 297° |
| 2026-04-15 16:03 | 53.22020 | 51.25866 | 34129 ft | 445 kts | 296° |
| 2026-04-15 16:04 | 53.24583 | 51.16486 | 34130 ft | 444 kts | 296° |
| 2026-04-15 16:04 | 53.27124 | 51.07167 | 34127 ft | 443 kts | 296° |
| 2026-04-15 16:05 | 53.29655 | 50.97850 | 34130 ft | 444 kts | 296° |
| 2026-04-15 16:05 | 53.32177 | 50.88531 | 34131 ft | 444 kts | 296° |
| 2026-04-15 16:06 | 53.34703 | 50.79160 | 34140 ft | 445 kts | 296° |
| 2026-04-15 16:06 | 53.37240 | 50.69708 | 34137 ft | 445 kts | 296° |
| 2026-04-15 16:07 | 53.39743 | 50.60345 | 34140 ft | 445 kts | 296° |
| 2026-04-15 16:08 | 53.43512 | 50.46177 | 34143 ft | 445 kts | 296° |
| 2026-04-15 16:08 | 53.46006 | 50.36750 | 34149 ft | 445 kts | 296° |
| 2026-04-15 16:09 | 53.48504 | 50.27245 | 34151 ft | 446 kts | 296° |
| 2026-04-15 16:09 | 53.51160 | 50.17993 | 34148 ft | 444 kts | 301° |
| 2026-04-15 16:10 | 53.54383 | 50.09183 | 34149 ft | 443 kts | 305° |
| 2026-04-15 16:10 | 53.57791 | 50.00650 | 34151 ft | 442 kts | 306° |
| 2026-04-15 16:11 | 53.61213 | 49.92079 | 34146 ft | 442 kts | 306° |
| 2026-04-15 16:11 | 53.64605 | 49.83538 | 34148 ft | 442 kts | 306° |
| 2026-04-15 16:12 | 53.68005 | 49.74940 | 34151 ft | 442 kts | 306° |
| 2026-04-15 16:12 | 53.71394 | 49.66342 | 34155 ft | 442 kts | 306° |
| 2026-04-15 16:13 | 53.74777 | 49.57729 | 34163 ft | 442 kts | 306° |
| 2026-04-15 16:13 | 53.78153 | 49.49097 | 34169 ft | 442 kts | 306° |
| 2026-04-15 16:14 | 53.81509 | 49.40482 | 34168 ft | 442 kts | 306° |
| 2026-04-15 16:14 | 53.84843 | 49.31894 | 34174 ft | 441 kts | 305° |
| 2026-04-15 16:15 | 53.88191 | 49.23223 | 34177 ft | 441 kts | 305° |
| 2026-04-15 16:15 | 53.91546 | 49.14525 | 34177 ft | 441 kts | 305° |
| 2026-04-15 16:16 | 53.94864 | 49.05891 | 34187 ft | 440 kts | 305° |
| 2026-04-15 16:16 | 53.98184 | 48.97192 | 34193 ft | 440 kts | 305° |
| 2026-04-15 16:17 | 54.01479 | 48.88537 | 34199 ft | 441 kts | 305° |
| 2026-04-15 16:17 | 54.04793 | 48.79811 | 34199 ft | 441 kts | 305° |
| 2026-04-15 16:18 | 54.08107 | 48.71058 | 34210 ft | 442 kts | 305° |
| 2026-04-15 16:18 | 54.11417 | 48.62308 | 34208 ft | 442 kts | 305° |
| 2026-04-15 16:19 | 54.14738 | 48.53546 | 34210 ft | 442 kts | 305° |
| 2026-04-15 16:19 | 54.18038 | 48.44764 | 34214 ft | 443 kts | 305° |
| 2026-04-15 16:20 | 54.21341 | 48.35922 | 34217 ft | 443 kts | 305° |
| 2026-04-15 16:20 | 54.24613 | 48.27094 | 34216 ft | 443 kts | 304° |
| 2026-04-15 16:21 | 54.27855 | 48.18190 | 34221 ft | 443 kts | 303° |
| 2026-04-15 16:21 | 54.30993 | 48.09161 | 34230 ft | 443 kts | 303° |
| 2026-04-15 16:22 | 54.34105 | 48.00181 | 34231 ft | 443 kts | 303° |
| 2026-04-15 16:22 | 54.37246 | 47.91111 | 34228 ft | 444 kts | 303° |
| 2026-04-15 16:23 | 54.40366 | 47.82074 | 34231 ft | 444 kts | 303° |
| 2026-04-15 16:23 | 54.43481 | 47.73021 | 34232 ft | 444 kts | 303° |
| 2026-04-15 16:24 | 54.46579 | 47.63989 | 34228 ft | 444 kts | 303° |
| 2026-04-15 16:24 | 54.49697 | 47.54863 | 34225 ft | 444 kts | 303° |
| 2026-04-15 16:25 | 54.52810 | 47.45719 | 34226 ft | 444 kts | 303° |
| 2026-04-15 16:25 | 54.55909 | 47.36585 | 34230 ft | 444 kts | 303° |
| 2026-04-15 16:26 | 54.58978 | 47.27488 | 34235 ft | 444 kts | 302° |
| 2026-04-15 16:26 | 54.62049 | 47.18350 | 34236 ft | 444 kts | 302° |
| 2026-04-15 16:27 | 54.65121 | 47.09186 | 34237 ft | 444 kts | 302° |
| 2026-04-15 16:27 | 54.68172 | 47.00031 | 34232 ft | 444 kts | 302° |
| 2026-04-15 16:28 | 54.71185 | 46.90734 | 34242 ft | 444 kts | 301° |
| 2026-04-15 16:28 | 54.74178 | 46.81452 | 34242 ft | 445 kts | 301° |
| 2026-04-15 16:29 | 54.77175 | 46.72145 | 34250 ft | 445 kts | 301° |
| 2026-04-15 16:29 | 54.80181 | 46.62848 | 34247 ft | 445 kts | 303° |
| 2026-04-15 16:30 | 54.83551 | 46.54026 | 34250 ft | 443 kts | 309° |
| 2026-04-15 16:30 | 54.87313 | 46.45639 | 34247 ft | 443 kts | 310° |
| 2026-04-15 16:31 | 54.91118 | 46.37275 | 34247 ft | 443 kts | 310° |
| 2026-04-15 16:31 | 54.94915 | 46.28870 | 34249 ft | 444 kts | 310° |
| 2026-04-15 16:32 | 54.98695 | 46.20457 | 34252 ft | 444 kts | 309° |
| 2026-04-15 16:32 | 55.02452 | 46.12074 | 34258 ft | 444 kts | 309° |
| 2026-04-15 16:33 | 55.06230 | 46.03622 | 34260 ft | 445 kts | 309° |
| 2026-04-15 16:33 | 55.10023 | 45.95108 | 34260 ft | 444 kts | 309° |
| 2026-04-15 16:34 | 55.13793 | 45.86675 | 34263 ft | 444 kts | 310° |
| 2026-04-15 16:34 | 55.17564 | 45.78196 | 34257 ft | 445 kts | 310° |
| 2026-04-15 16:35 | 55.21344 | 45.69643 | 34260 ft | 445 kts | 309° |
| 2026-04-15 16:35 | 55.25113 | 45.61069 | 34265 ft | 445 kts | 309° |
| 2026-04-15 16:36 | 55.28867 | 45.52500 | 34258 ft | 445 kts | 309° |
| 2026-04-15 16:36 | 55.32606 | 45.43932 | 34259 ft | 445 kts | 309° |
| 2026-04-15 16:37 | 55.36316 | 45.35401 | 34259 ft | 445 kts | 309° |
| 2026-04-15 16:37 | 55.40050 | 45.26759 | 34262 ft | 445 kts | 309° |
| 2026-04-15 16:38 | 55.43781 | 45.18105 | 34258 ft | 446 kts | 309° |
| 2026-04-15 16:38 | 55.47528 | 45.09398 | 34256 ft | 446 kts | 309° |
| 2026-04-15 16:39 | 55.51234 | 45.00734 | 34263 ft | 447 kts | 307° |
| 2026-04-15 16:39 | 55.54379 | 44.91293 | 34261 ft | 450 kts | 296° |
| 2026-04-15 16:40 | 55.56450 | 44.80951 | 34262 ft | 453 kts | 285° |
| 2026-04-15 16:40 | 55.57376 | 44.69990 | 34266 ft | 456 kts | 275° |
| 2026-04-15 16:41 | 55.57671 | 44.58807 | 34260 ft | 457 kts | 274° |
| 2026-04-15 16:41 | 55.57926 | 44.47652 | 34263 ft | 456 kts | 274° |
| 2026-04-15 16:42 | 55.58186 | 44.36543 | 34265 ft | 457 kts | 274° |
| 2026-04-15 16:42 | 55.58444 | 44.25365 | 34271 ft | 457 kts | 274° |
| 2026-04-15 16:43 | 55.58696 | 44.14170 | 34271 ft | 457 kts | 273° |
| 2026-04-15 16:43 | 55.58935 | 44.03024 | 34274 ft | 457 kts | 273° |
| 2026-04-15 16:44 | 55.59222 | 43.91805 | 34270 ft | 456 kts | 276° |
| 2026-04-15 16:44 | 55.60264 | 43.80730 | 34268 ft | 463 kts | 285° |
| 2026-04-15 16:45 | 55.62309 | 43.69992 | 34266 ft | 468 kts | 295° |
| 2026-04-15 16:45 | 55.65293 | 43.59789 | 34267 ft | 469 kts | 302° |
| 2026-04-15 16:46 | 55.68545 | 43.49937 | 34264 ft | 469 kts | 302° |
| 2026-04-15 16:46 | 55.71798 | 43.40012 | 34270 ft | 470 kts | 302° |
| 2026-04-15 16:47 | 55.75003 | 43.30018 | 34265 ft | 471 kts | 298° |
| 2026-04-15 16:47 | 55.77673 | 43.19437 | 34261 ft | 472 kts | 291° |
| 2026-04-15 16:48 | 55.79538 | 43.08299 | 34273 ft | 474 kts | 284° |
| 2026-04-15 16:48 | 55.80576 | 42.96839 | 34268 ft | 474 kts | 277° |
| 2026-04-15 16:49 | 55.81230 | 42.85236 | 34268 ft | 475 kts | 276° |
| 2026-04-15 16:49 | 55.81863 | 42.73600 | 34263 ft | 475 kts | 276° |
| 2026-04-15 16:50 | 55.82491 | 42.62053 | 34261 ft | 476 kts | 277° |
| 2026-04-15 16:50 | 55.83122 | 42.50314 | 34261 ft | 476 kts | 277° |
| 2026-04-15 16:51 | 55.83736 | 42.38721 | 34258 ft | 476 kts | 276° |
| 2026-04-15 16:51 | 55.84339 | 42.27112 | 34262 ft | 475 kts | 276° |
| 2026-04-15 16:52 | 55.84935 | 42.15448 | 34253 ft | 475 kts | 276° |
| 2026-04-15 16:52 | 55.85521 | 42.03790 | 34258 ft | 476 kts | 276° |
| 2026-04-15 16:53 | 55.86091 | 41.92234 | 34252 ft | 476 kts | 276° |
| 2026-04-15 16:53 | 55.86581 | 41.80465 | 34253 ft | 477 kts | 272° |
| 2026-04-15 16:54 | 55.86466 | 41.68755 | 34256 ft | 477 kts | 268° |
| 2026-04-15 16:54 | 55.86111 | 41.57109 | 34254 ft | 476 kts | 268° |
| 2026-04-15 16:55 | 55.85741 | 41.45380 | 34258 ft | 476 kts | 268° |
| 2026-04-15 16:55 | 55.85371 | 41.33721 | 34258 ft | 476 kts | 267° |
| 2026-04-15 16:56 | 55.84989 | 41.21982 | 34260 ft | 477 kts | 267° |
| 2026-04-15 16:56 | 55.84599 | 41.10297 | 34257 ft | 477 kts | 267° |
| 2026-04-15 16:57 | 55.84195 | 40.98518 | 34252 ft | 477 kts | 267° |
| 2026-04-15 16:57 | 55.83784 | 40.86859 | 34252 ft | 477 kts | 267° |
| 2026-04-15 16:58 | 55.83363 | 40.75137 | 34241 ft | 477 kts | 266° |
| 2026-04-15 16:58 | 55.82925 | 40.63443 | 33891 ft | 475 kts | 266° |
| 2026-04-15 16:58 | 55.82702 | 40.57736 | 33484 ft | 467 kts | 266° |
| 2026-04-15 16:59 | 55.82469 | 40.52008 | 33046 ft | 458 kts | 266° |
| 2026-04-15 16:59 | 55.82241 | 40.46465 | 32633 ft | 451 kts | 266° |
| 2026-04-15 16:59 | 55.82016 | 40.41009 | 32256 ft | 442 kts | 266° |
| 2026-04-15 16:59 | 55.81798 | 40.35729 | 31989 ft | 433 kts | 266° |
| 2026-04-15 17:00 | 55.81578 | 40.30463 | 31714 ft | 424 kts | 266° |
| 2026-04-15 17:00 | 55.81362 | 40.25311 | 31446 ft | 418 kts | 266° |
| 2026-04-15 17:00 | 55.81146 | 40.20198 | 31177 ft | 419 kts | 266° |
| 2026-04-15 17:00 | 55.80924 | 40.15006 | 30869 ft | 420 kts | 266° |
| 2026-04-15 17:01 | 55.80711 | 40.10051 | 30522 ft | 421 kts | 266° |
| 2026-04-15 17:01 | 55.80483 | 40.04787 | 30034 ft | 423 kts | 266° |
| 2026-04-15 17:01 | 55.80254 | 39.99557 | 29482 ft | 423 kts | 265° |
| 2026-04-15 17:01 | 55.80027 | 39.94443 | 28896 ft | 424 kts | 265° |
| 2026-04-15 17:02 | 55.79792 | 39.89228 | 28284 ft | 424 kts | 265° |
| 2026-04-15 17:02 | 55.79555 | 39.84039 | 27649 ft | 425 kts | 265° |
| 2026-04-15 17:02 | 55.79302 | 39.78881 | 27020 ft | 425 kts | 264° |
| 2026-04-15 17:02 | 55.78968 | 39.73681 | 26486 ft | 423 kts | 263° |
| 2026-04-15 17:03 | 55.78613 | 39.68530 | 26053 ft | 419 kts | 262° |
| 2026-04-15 17:03 | 55.78265 | 39.63488 | 25624 ft | 416 kts | 262° |
| 2026-04-15 17:03 | 55.77918 | 39.58409 | 25186 ft | 413 kts | 262° |
| 2026-04-15 17:03 | 55.77580 | 39.53418 | 24762 ft | 410 kts | 262° |
| 2026-04-15 17:04 | 55.77243 | 39.48466 | 24332 ft | 408 kts | 262° |
| 2026-04-15 17:04 | 55.76911 | 39.43607 | 24188 ft | 400 kts | 262° |
| 2026-04-15 17:04 | 55.76579 | 39.38776 | 24144 ft | 396 kts | 262° |
| 2026-04-15 17:04 | 55.76236 | 39.33873 | 24171 ft | 400 kts | 261° |
| 2026-04-15 17:05 | 55.75903 | 39.29122 | 24194 ft | 401 kts | 261° |
| 2026-04-15 17:05 | 55.75554 | 39.24159 | 24204 ft | 401 kts | 261° |
| 2026-04-15 17:05 | 55.75212 | 39.19319 | 24208 ft | 402 kts | 261° |
| 2026-04-15 17:05 | 55.74864 | 39.14411 | 24211 ft | 402 kts | 261° |
| 2026-04-15 17:06 | 55.74517 | 39.09552 | 24207 ft | 403 kts | 261° |
| 2026-04-15 17:06 | 55.74162 | 39.04637 | 24177 ft | 403 kts | 261° |
| 2026-04-15 17:06 | 55.73812 | 38.99804 | 23763 ft | 404 kts | 261° |
| 2026-04-15 17:06 | 55.73543 | 38.94890 | 23321 ft | 402 kts | 265° |
| 2026-04-15 17:07 | 55.73512 | 38.90017 | 22937 ft | 398 kts | 271° |
| 2026-04-15 17:07 | 55.73697 | 38.85167 | 22549 ft | 395 kts | 274° |
| 2026-04-15 17:07 | 55.73949 | 38.80343 | 22148 ft | 391 kts | 274° |
| 2026-04-15 17:07 | 55.74202 | 38.75610 | 21752 ft | 388 kts | 274° |
| 2026-04-15 17:08 | 55.74445 | 38.70889 | 21355 ft | 385 kts | 274° |
| 2026-04-15 17:08 | 55.74680 | 38.66171 | 20954 ft | 383 kts | 274° |
| 2026-04-15 17:08 | 55.74912 | 38.61545 | 20560 ft | 380 kts | 276° |
| 2026-04-15 17:08 | 55.75502 | 38.57032 | 20250 ft | 376 kts | 290° |
| 2026-04-15 17:09 | 55.76653 | 38.52938 | 20223 ft | 367 kts | 303° |
| 2026-04-15 17:09 | 55.78095 | 38.49240 | 20220 ft | 365 kts | 307° |
| 2026-04-15 17:09 | 55.79579 | 38.45641 | 20216 ft | 363 kts | 307° |
| 2026-04-15 17:09 | 55.81064 | 38.42020 | 20198 ft | 364 kts | 308° |
| 2026-04-15 17:10 | 55.82712 | 38.38560 | 19943 ft | 379 kts | 314° |
| 2026-04-15 17:10 | 55.84426 | 38.34965 | 19740 ft | 381 kts | 308° |
| 2026-04-15 17:10 | 55.86001 | 38.31334 | 19232 ft | 376 kts | 307° |
| 2026-04-15 17:10 | 55.87568 | 38.27662 | 18353 ft | 374 kts | 307° |
| 2026-04-15 17:11 | 55.89117 | 38.24060 | 17503 ft | 371 kts | 308° |
| 2026-04-15 17:11 | 55.90653 | 38.20523 | 16676 ft | 368 kts | 308° |
| 2026-04-15 17:11 | 55.92215 | 38.16951 | 15841 ft | 364 kts | 308° |
| 2026-04-15 17:12 | 55.95285 | 38.09956 | 14178 ft | 356 kts | 309° |
| 2026-04-15 17:12 | 55.96787 | 38.06537 | 13345 ft | 354 kts | 309° |
| 2026-04-15 17:12 | 55.98293 | 38.03108 | 12525 ft | 351 kts | 308° |
| 2026-04-15 17:12 | 55.99772 | 37.99731 | 11733 ft | 347 kts | 309° |
| 2026-04-15 17:13 | 56.01233 | 37.96393 | 10953 ft | 343 kts | 309° |
| 2026-04-15 17:13 | 56.02679 | 37.93083 | 10343 ft | 333 kts | 309° |
| 2026-04-15 17:13 | 56.04066 | 37.89902 | 9873 ft | 321 kts | 309° |
| 2026-04-15 17:13 | 56.05408 | 37.86823 | 9424 ft | 309 kts | 309° |
| 2026-04-15 17:14 | 56.06708 | 37.83842 | 8931 ft | 302 kts | 309° |
| 2026-04-15 17:14 | 56.07916 | 37.80838 | 8321 ft | 299 kts | 296° |
| 2026-04-15 17:14 | 56.08352 | 37.77333 | 7705 ft | 289 kts | 260° |
| 2026-04-15 17:14 | 56.07684 | 37.74150 | 7178 ft | 269 kts | 224° |